createdAt,value
2019-02-10T00:02:04.886Z,6.10
2019-02-10T00:05:07.983Z,5.20
2019-02-10T00:08:11.066Z,5.10
2019-02-10T00:11:14.167Z,5.07
2019-02-10T00:14:17.260Z,4.70
2019-02-10T00:17:20.345Z,5.10
2019-02-10T00:20:23.437Z,5.40
2019-02-10T00:23:26.535Z,5.77
2019-02-10T00:26:29.627Z,5.83
2019-02-10T00:29:32.813Z,6.23
2019-02-10T00:32:35.908Z,5.67
2019-02-10T00:35:39.018Z,6.37
2019-02-10T00:38:42.191Z,5.60
2019-02-10T00:41:45.275Z,5.50
2019-02-10T00:44:48.379Z,5.20
2019-02-10T00:47:51.450Z,5.50
2019-02-10T00:50:54.847Z,5.07
2019-02-10T00:53:57.961Z,4.47
2019-02-10T00:57:01.055Z,4.90
2019-02-10T01:00:04.200Z,4.50
2019-02-10T01:03:07.340Z,4.77
2019-02-10T01:06:10.415Z,5.20
2019-02-10T01:09:13.524Z,4.83
2019-02-10T01:12:16.605Z,5.33
2019-02-10T01:15:19.700Z,4.67
2019-02-10T01:18:22.785Z,5.17
2019-02-10T01:21:25.875Z,4.63
2019-02-10T01:24:28.972Z,4.67
2019-02-10T01:27:32.079Z,4.37
2019-02-10T01:30:35.172Z,3.97
2019-02-10T01:33:38.351Z,4.10
2019-02-10T01:36:49.217Z,3.80
2019-02-10T01:39:44.547Z,3.90
2019-02-10T01:42:49.127Z,4.17
2019-02-10T01:45:52.261Z,4.03
2019-02-10T01:48:55.349Z,3.93
2019-02-10T01:51:58.450Z,3.77
2019-02-10T01:55:01.541Z,3.57
2019-02-10T01:58:04.635Z,4.13
2019-02-10T02:01:07.717Z,3.83
2019-02-10T02:04:10.817Z,3.90
2019-02-10T02:07:13.895Z,3.50
2019-02-10T02:10:17.004Z,3.60
2019-02-10T02:13:20.070Z,3.63
2019-02-10T02:16:23.197Z,3.43
2019-02-10T02:19:26.276Z,4.00
2019-02-10T02:22:29.371Z,3.27
2019-02-10T02:25:32.547Z,3.20
2019-02-10T02:28:35.643Z,3.50
2019-02-10T02:31:38.751Z,3.57
2019-02-10T02:34:41.816Z,3.60
2019-02-10T02:37:44.932Z,3.63
2019-02-10T02:40:48.007Z,3.00
2019-02-10T02:43:51.109Z,3.07
2019-02-10T02:46:54.202Z,2.87
2019-02-10T02:49:57.279Z,3.33
2019-02-10T02:53:00.388Z,2.90
2019-02-10T02:56:03.488Z,3.50
2019-02-10T02:59:06.560Z,3.10
2019-02-10T03:02:09.652Z,3.27
2019-02-10T03:05:12.753Z,3.17
2019-02-10T03:08:15.811Z,3.00
2019-02-10T03:11:18.889Z,3.10
2019-02-10T03:14:22.041Z,3.00
2019-02-10T03:17:25.230Z,3.00
2019-02-10T03:20:28.318Z,3.00
2019-02-10T03:23:31.402Z,3.50
2019-02-10T03:26:34.494Z,3.70
2019-02-10T03:29:37.585Z,3.30
2019-02-10T03:32:40.718Z,3.40
2019-02-10T03:35:43.784Z,3.40
2019-02-10T03:38:46.873Z,3.40
2019-02-10T03:41:49.963Z,2.97
2019-02-10T03:44:53.262Z,3.40
2019-02-10T03:47:56.350Z,3.20
2019-02-10T03:50:59.453Z,3.17
2019-02-10T03:54:02.497Z,4.07
2019-02-10T03:57:05.551Z,2.70
2019-02-10T04:00:08.880Z,2.70
2019-02-10T04:03:11.947Z,3.50
2019-02-10T04:06:15.103Z,4.10
2019-02-10T04:09:18.168Z,3.53
2019-02-10T04:12:21.283Z,2.80
2019-02-10T04:15:24.382Z,2.80
2019-02-10T04:18:27.475Z,2.67
2019-02-10T04:21:30.541Z,2.50
2019-02-10T04:24:34.682Z,2.63
2019-02-10T04:27:38.026Z,2.83
2019-02-10T04:30:41.092Z,3.20
2019-02-10T04:33:44.254Z,2.97
2019-02-10T04:36:47.350Z,2.97
2019-02-10T04:39:50.442Z,2.40
2019-02-10T04:42:53.532Z,2.37
2019-02-10T04:45:56.604Z,2.30
2019-02-10T04:48:59.738Z,2.50
2019-02-10T04:52:02.821Z,2.53
2019-02-10T04:55:06.059Z,2.30
2019-02-10T04:58:09.203Z,2.37
2019-02-10T05:01:12.297Z,2.30
2019-02-10T05:04:15.399Z,2.00
2019-02-10T05:07:18.467Z,1.87
2019-02-10T05:10:21.866Z,1.93
2019-02-10T05:13:24.666Z,2.27
2019-02-10T05:16:27.724Z,1.90
2019-02-10T05:19:30.852Z,1.77
2019-02-10T05:22:33.932Z,1.63
2019-02-10T05:25:37.038Z,2.10
2019-02-10T05:28:40.130Z,1.90
2019-02-10T05:31:43.229Z,1.90
2019-02-10T05:34:46.308Z,2.10
2019-02-10T05:37:49.400Z,1.73
2019-02-10T05:40:52.487Z,1.97
2019-02-10T05:43:55.579Z,2.27
2019-02-10T05:46:58.671Z,2.00
2019-02-10T05:50:01.768Z,1.83
2019-02-10T05:53:04.899Z,1.63
2019-02-10T05:56:08.058Z,1.67
2019-02-10T05:59:11.139Z,1.77
2019-02-10T06:02:23.009Z,1.90
2019-02-10T06:05:27.832Z,2.10
2019-02-10T06:08:30.922Z,1.90
2019-02-10T06:11:34.066Z,1.80
2019-02-10T06:14:37.158Z,1.77
2019-02-10T06:17:40.250Z,1.90
2019-02-10T06:20:43.334Z,2.00
2019-02-10T06:23:46.439Z,1.80
2019-02-10T06:26:49.534Z,2.20
2019-02-10T06:29:52.618Z,1.93
2019-02-10T06:32:55.725Z,1.90
2019-02-10T06:35:59.796Z,1.80
2019-02-10T06:39:02.976Z,2.07
2019-02-10T06:42:06.118Z,1.80
2019-02-10T06:45:11.552Z,1.60
2019-02-10T06:48:14.663Z,1.50
2019-02-10T06:51:17.724Z,2.00
2019-02-10T06:54:20.798Z,1.67
2019-02-10T06:57:26.067Z,1.70
2019-02-10T07:01:01.362Z,1.83
2019-02-10T07:04:11.579Z,1.90
2019-02-10T07:07:14.660Z,1.97
2019-02-10T07:10:17.904Z,2.10
2019-02-10T07:13:29.387Z,1.97
2019-02-10T07:16:35.967Z,1.80
2019-02-10T07:19:50.396Z,2.10
2019-02-10T07:22:56.227Z,1.53
2019-02-10T07:26:01.155Z,1.53
2019-02-10T07:29:17.158Z,1.50
2019-02-10T07:32:25.082Z,1.80
2019-02-10T07:37:42.324Z,1.87
2019-02-10T07:40:59.141Z,1.90
2019-02-10T07:44:16.561Z,2.00
2019-02-10T07:47:34.484Z,1.90
2019-02-10T07:51:55.815Z,1.70
2019-02-10T07:55:28.961Z,1.80
2019-02-10T07:58:42.063Z,1.73
2019-02-10T08:04:03.216Z,1.83
2019-02-10T08:07:25.583Z,2.60
2019-02-10T08:12:44.000Z,2.50
2019-02-10T08:16:01.824Z,2.17
2019-02-10T08:19:45.643Z,2.30
2019-02-10T08:23:00.771Z,2.10
2019-02-10T08:26:53.524Z,1.90
2019-02-10T08:30:06.925Z,1.80
2019-02-10T08:33:53.456Z,1.83
2019-02-10T08:37:22.302Z,1.30
2019-02-10T08:40:39.464Z,1.10
2019-02-10T08:43:50.552Z,0.97
2019-02-10T08:49:05.688Z,1.10
2019-02-10T08:53:22.573Z,1.13
2019-02-10T08:56:25.650Z,1.23
2019-02-10T08:59:28.736Z,1.10
2019-02-10T09:02:31.839Z,1.00
2019-02-10T09:05:34.927Z,1.23
2019-02-10T09:08:38.019Z,1.20
2019-02-10T09:11:41.094Z,1.20
2019-02-10T09:14:44.204Z,1.00
2019-02-10T09:17:47.378Z,1.13
2019-02-10T09:20:50.484Z,1.00
2019-02-10T09:23:53.549Z,1.07
2019-02-10T09:26:56.669Z,1.10
2019-02-10T09:29:59.771Z,0.90
2019-02-10T09:33:02.863Z,1.10
2019-02-10T09:36:05.938Z,0.97
2019-02-10T09:39:10.957Z,0.90
2019-02-10T09:42:12.239Z,1.10
2019-02-10T09:45:15.339Z,1.00
2019-02-10T09:48:18.508Z,1.10
2019-02-10T09:51:21.609Z,1.07
2019-02-10T09:54:24.703Z,1.80
2019-02-10T09:57:27.794Z,1.20
2019-02-10T10:00:30.919Z,1.07
2019-02-10T10:03:33.987Z,1.10
2019-02-10T10:06:37.069Z,1.30
2019-02-10T10:09:40.272Z,1.00
2019-02-10T10:12:43.356Z,1.20
2019-02-10T10:15:46.464Z,1.00
2019-02-10T10:18:49.656Z,1.00
2019-02-10T10:21:52.747Z,1.10
2019-02-10T10:24:55.939Z,1.20
2019-02-10T10:27:59.139Z,1.13
2019-02-10T10:31:02.233Z,1.00
2019-02-10T10:34:05.419Z,1.00
2019-02-10T10:37:08.949Z,1.17
2019-02-10T10:40:12.149Z,1.10
2019-02-10T10:43:15.219Z,1.10
2019-02-10T10:46:18.381Z,1.83
2019-02-10T10:49:21.484Z,1.17
2019-02-10T10:52:24.567Z,1.20
2019-02-10T10:55:27.674Z,1.13
2019-02-10T10:58:30.784Z,1.10
2019-02-10T11:01:33.855Z,1.33
2019-02-10T11:04:38.099Z,1.60
2019-02-10T11:07:42.832Z,1.20
2019-02-10T11:10:46.009Z,1.33
2019-02-10T11:13:49.203Z,1.30
2019-02-10T11:16:52.316Z,1.10
2019-02-10T11:19:55.500Z,1.10
2019-02-10T11:22:58.683Z,1.20
2019-02-10T11:26:01.858Z,1.37
2019-02-10T11:29:04.965Z,1.17
2019-02-10T11:32:08.028Z,1.13
2019-02-10T11:35:11.151Z,1.50
2019-02-10T11:38:14.240Z,1.07
2019-02-10T11:41:17.421Z,1.20
2019-02-10T11:44:20.527Z,1.20
2019-02-10T11:47:23.647Z,1.40
2019-02-10T11:50:26.818Z,1.17
2019-02-10T11:53:29.879Z,1.10
2019-02-10T11:56:32.976Z,1.10
2019-02-10T11:59:36.275Z,1.30
2019-02-10T12:02:39.347Z,1.40
2019-02-10T12:05:42.460Z,1.30
2019-02-10T12:08:45.579Z,1.30
2019-02-10T12:11:48.759Z,1.47
2019-02-10T12:14:51.912Z,1.17
2019-02-10T12:17:55.079Z,1.50
2019-02-10T12:20:58.199Z,1.20
2019-02-10T12:24:01.339Z,1.43
2019-02-10T12:27:04.425Z,1.50
2019-02-10T12:30:09.805Z,1.77
2019-02-10T12:33:12.871Z,1.87
2019-02-10T12:36:15.986Z,1.70
2019-02-10T12:39:19.035Z,1.80
2019-02-10T12:42:22.144Z,1.60
2019-02-10T12:45:25.408Z,1.70
2019-02-10T12:48:28.537Z,1.70
2019-02-10T12:51:31.599Z,1.60
2019-02-10T12:54:34.824Z,1.47
2019-02-10T12:57:37.906Z,1.30
2019-02-10T13:00:41.030Z,1.30
2019-02-10T13:03:44.187Z,1.33
2019-02-10T13:06:47.263Z,1.30
2019-02-10T13:09:50.387Z,1.10
2019-02-10T13:12:53.613Z,1.10
2019-02-10T13:15:56.659Z,1.27
2019-02-10T13:18:59.760Z,1.33
2019-02-10T13:22:02.855Z,1.40
2019-02-10T13:25:06.068Z,1.23
2019-02-10T13:28:09.233Z,1.20
2019-02-10T13:31:12.315Z,1.20
2019-02-10T13:34:15.421Z,1.10
2019-02-10T13:37:18.503Z,1.10
2019-02-10T13:40:21.599Z,1.40
2019-02-10T13:43:24.693Z,1.20
2019-02-10T13:46:27.792Z,1.30
2019-02-10T13:49:30.992Z,1.23
2019-02-10T13:52:34.554Z,1.53
2019-02-10T13:55:37.848Z,1.23
2019-02-10T13:58:41.851Z,1.30
2019-02-10T14:01:44.987Z,1.30
2019-02-10T14:04:48.091Z,1.30
2019-02-10T14:07:51.441Z,1.20
2019-02-10T14:10:54.263Z,1.27
2019-02-10T14:13:57.359Z,1.30
2019-02-10T14:17:01.899Z,1.27
2019-02-10T14:20:04.604Z,1.00
2019-02-10T14:23:07.789Z,1.20
2019-02-10T14:26:10.948Z,1.07
2019-02-10T14:29:14.039Z,1.03
2019-02-10T14:32:17.121Z,1.23
2019-02-10T14:35:20.338Z,1.50
2019-02-10T14:38:24.729Z,1.57
2019-02-10T14:41:26.643Z,1.40
2019-02-10T14:44:29.708Z,1.30
2019-02-10T14:47:32.780Z,1.47
2019-02-10T14:50:35.840Z,1.50
2019-02-10T14:53:38.902Z,0.87
2019-02-10T14:56:41.940Z,1.10
2019-02-10T14:59:45.059Z,0.70
2019-02-10T15:02:48.160Z,0.80
2019-02-10T15:05:51.243Z,2.53
2019-02-10T15:08:54.341Z,2.10
2019-02-10T15:11:57.445Z,0.80
2019-02-10T15:15:00.528Z,1.40
2019-02-10T15:18:03.639Z,2.50
2019-02-10T15:21:06.718Z,0.90
2019-02-10T15:24:09.907Z,1.00
2019-02-10T15:27:12.993Z,1.20
2019-02-10T15:30:16.116Z,1.10
2019-02-10T15:33:19.178Z,1.03
2019-02-10T15:36:22.241Z,0.70
2019-02-10T15:39:25.386Z,0.87
2019-02-10T15:42:28.436Z,0.47
2019-02-10T15:45:31.546Z,0.60
2019-02-10T15:48:34.643Z,0.70
2019-02-10T15:51:37.707Z,0.50
2019-02-10T15:54:40.767Z,0.60
2019-02-10T15:57:43.942Z,0.80
2019-02-10T16:00:47.133Z,0.60
2019-02-10T16:03:50.316Z,0.50
2019-02-10T16:06:53.392Z,0.40
2019-02-10T16:09:56.490Z,0.50
2019-02-10T16:12:59.579Z,0.53
2019-02-10T16:16:02.652Z,0.60
2019-02-10T16:19:05.722Z,0.40
2019-02-10T16:22:08.855Z,0.33
2019-02-10T16:25:11.954Z,0.50
2019-02-10T16:28:15.147Z,0.40
2019-02-10T16:31:18.250Z,0.40
2019-02-10T16:34:21.306Z,0.33
2019-02-10T16:37:24.371Z,0.40
2019-02-10T16:40:27.543Z,0.50
2019-02-10T16:43:30.704Z,0.40
2019-02-10T16:46:33.812Z,0.60
2019-02-10T16:49:36.950Z,0.70
2019-02-10T16:52:40.124Z,0.70
2019-02-10T16:55:43.284Z,0.40
2019-02-10T16:58:46.375Z,0.60
2019-02-10T17:01:49.484Z,0.50
2019-02-10T17:04:52.591Z,0.50
2019-02-10T17:07:55.758Z,0.80
2019-02-10T17:10:58.880Z,0.50
2019-02-10T17:14:02.028Z,0.50
2019-02-10T17:17:05.151Z,0.60
2019-02-10T17:20:08.723Z,0.80
2019-02-10T17:23:11.923Z,0.90
2019-02-10T17:26:15.019Z,0.60
2019-02-10T17:29:18.295Z,0.60
2019-02-10T17:32:21.478Z,0.60
2019-02-10T17:35:24.652Z,0.60
2019-02-10T17:38:27.754Z,0.70
2019-02-10T17:41:35.260Z,0.80
2019-02-10T17:44:38.450Z,0.70
2019-02-10T17:47:41.521Z,0.70
2019-02-10T17:50:44.592Z,0.90
2019-02-10T17:53:47.660Z,0.67
2019-02-10T17:56:50.719Z,0.50
2019-02-10T17:59:53.841Z,0.50
2019-02-10T18:02:56.934Z,0.70
2019-02-10T18:06:00.021Z,0.50
2019-02-10T18:09:03.140Z,0.60
2019-02-10T18:12:06.291Z,0.67
2019-02-10T18:17:16.756Z,0.67
2019-02-10T18:20:25.951Z,0.50
2019-02-10T18:23:39.216Z,0.50
2019-02-10T18:26:59.391Z,0.63
2019-02-10T18:30:07.836Z,0.50
2019-02-10T18:33:16.398Z,0.43
2019-02-10T18:36:23.655Z,0.43
2019-02-10T18:39:31.938Z,0.50
2019-02-10T18:42:41.228Z,0.90
2019-02-10T18:45:48.528Z,0.50
2019-02-10T18:49:00.885Z,0.50
2019-02-10T18:52:11.216Z,0.40
2019-02-10T18:55:38.501Z,0.70
2019-02-10T18:58:53.987Z,0.43
2019-02-10T19:01:54.215Z,0.43
2019-02-10T19:05:05.504Z,0.67
2019-02-10T19:08:14.689Z,0.90
2019-02-10T19:11:24.828Z,0.83
2019-02-10T19:14:50.024Z,0.83
2019-02-10T19:18:00.155Z,0.70
2019-02-10T19:21:10.479Z,1.10
2019-02-10T19:24:35.763Z,0.90
2019-02-10T19:28:48.187Z,0.87
2019-02-10T19:32:00.527Z,1.00
2019-02-10T19:35:09.227Z,0.80
2019-02-10T19:39:17.423Z,0.80
2019-02-10T19:42:30.599Z,1.00
2019-02-10T19:45:39.136Z,0.80
2019-02-10T19:50:49.613Z,0.80
2019-02-10T19:55:59.086Z,0.67
2019-02-10T19:59:07.486Z,0.63
2019-02-10T20:02:20.320Z,0.60
2019-02-10T20:05:27.149Z,0.80
2019-02-10T20:08:35.514Z,0.60
2019-02-10T20:11:44.711Z,0.80
2019-02-10T20:14:52.116Z,0.60
2019-02-10T20:18:03.432Z,0.50
2019-02-10T20:21:12.026Z,0.60
2019-02-10T20:24:19.267Z,0.60
2019-02-10T20:27:27.871Z,0.30
2019-02-10T20:30:36.407Z,0.70
2019-02-10T20:34:14.712Z,0.50
2019-02-10T20:37:22.862Z,0.60
2019-02-10T20:40:30.216Z,0.57
2019-02-10T20:43:43.440Z,0.53
2019-02-10T20:46:53.776Z,0.60
2019-02-10T20:50:01.015Z,0.60
2019-02-10T20:54:13.308Z,0.70
2019-02-10T20:57:20.599Z,0.80
2019-02-10T21:00:28.693Z,0.40
2019-02-10T21:03:39.883Z,0.50
2019-02-10T21:06:47.203Z,0.60
2019-02-10T21:11:57.580Z,0.50
2019-02-10T21:15:06.834Z,0.63
2019-02-10T21:18:20.127Z,0.40
2019-02-10T21:21:28.458Z,0.50
2019-02-10T21:24:36.948Z,0.50
2019-02-10T21:27:44.255Z,0.40
2019-02-10T21:30:52.746Z,0.60
2019-02-10T21:34:05.075Z,0.50
2019-02-10T21:37:16.331Z,0.50
2019-02-10T21:40:24.728Z,0.40
2019-02-10T21:43:35.073Z,0.50
2019-02-10T21:46:46.335Z,0.50
2019-02-10T21:49:49.443Z,0.70
2019-02-10T21:52:52.549Z,0.50
2019-02-10T21:55:55.725Z,0.50
2019-02-10T21:58:58.856Z,0.50
2019-02-10T22:02:02.041Z,0.60
2019-02-10T22:05:05.636Z,0.70
2019-02-10T22:08:08.707Z,0.50
2019-02-10T22:11:11.807Z,0.60
2019-02-10T22:14:14.943Z,0.60
2019-02-10T22:17:18.112Z,0.60
2019-02-10T22:20:21.305Z,0.60
2019-02-10T22:23:24.464Z,0.60
2019-02-10T22:26:27.563Z,0.80
2019-02-10T22:29:30.659Z,0.60
2019-02-10T22:32:33.751Z,0.70
2019-02-10T22:35:36.854Z,0.90
2019-02-10T22:38:40.862Z,0.70
2019-02-10T22:41:43.940Z,0.70
2019-02-10T22:44:47.011Z,0.70
2019-02-10T22:47:50.150Z,0.63
2019-02-10T22:50:53.207Z,0.70
2019-02-10T22:53:56.322Z,0.70
2019-02-10T22:56:59.410Z,0.73
2019-02-10T23:00:02.502Z,0.70
2019-02-10T23:03:05.599Z,0.53
2019-02-10T23:06:08.692Z,1.37
2019-02-10T23:09:16.795Z,0.63
2019-02-10T23:12:19.901Z,0.60
2019-02-10T23:15:22.987Z,0.87
2019-02-10T23:18:26.075Z,0.50
2019-02-10T23:21:29.143Z,0.40
2019-02-10T23:24:32.268Z,0.40
2019-02-10T23:27:35.340Z,0.50
2019-02-10T23:30:38.459Z,0.67
2019-02-10T23:33:41.563Z,0.50
2019-02-10T23:36:44.742Z,0.50
2019-02-10T23:39:47.836Z,0.50
2019-02-10T23:42:50.935Z,1.00
2019-02-10T23:45:54.124Z,0.90
2019-02-10T23:48:57.211Z,0.63
2019-02-10T23:52:00.310Z,0.70
2019-02-10T23:55:03.389Z,0.80
2019-02-10T23:58:06.472Z,0.60
